EW2481 Weather Reports


Display with metric or nautical units.
time (UTC)temp
F
wind
direction
speed
MPH
gust
MPH
rain 1hr
in
rain 24hr
in
rain mn
in
humidity
%
barometer
mb
20191207111654 12 276 0.0 0.0 0.00 0.00 0.00 87 1028.8
20191207110158 12 276 0.0 0.0 0.00 0.00 0.00 86 1028.8
20191207104627 13 276 0.0 0.0 0.00 0.00 0.00 86 1028.6
20191207103132 14 276 0.0 0.0 0.00 0.00 0.00 86 1028.5
20191207101608 14 276 0.0 0.0 0.00 0.00 0.00 86 1028.2
20191207100106 14 276 0.0 0.0 0.00 0.00 0.00 86 1028.0
20191207094646 15 276 0.0 0.0 0.00 0.00 0.00 85 1028.2
20191207093100 16 276 0.0 0.0 0.00 0.00 0.00 85 1028.1
20191207091613 16 276 2.0 8.0 0.00 0.00 0.00 86 1027.9
20191207090047 16 284 0.0 0.0 0.00 0.00 0.00 85 1027.8
20191207084605 16 284 0.0 0.0 0.00 0.00 0.00 85 1027.7
20191207083050 15 284 0.0 0.0 0.00 0.00 0.00 84 1027.7
20191207081557 16 284 0.0 0.0 0.00 0.00 0.00 83 1027.7
20191207080039 17 284 0.0 0.0 0.00 0.00 0.00 83 1027.5
20191207074615 17 284 0.0 0.0 0.00 0.00 0.00 83 1027.3
20191207073033 17 284 0.0 0.0 0.00 0.00 0.00 83 1027.3
20191207071524 18 284 0.0 0.0 0.00 0.00 0.00 82 1027.2
20191207070022 18 284 0.0 0.0 0.00 0.00 0.00 83 1026.7
20191207064535 18 284 2.0 4.0 0.00 0.00 0.00 83 1026.5
20191207063023 17 284 4.0 7.0 0.00 0.00 0.00 82 1026.6
20191207061533 17 284 0.0 5.0 0.00 0.00 0.00 81 1026.2
20191207060028 17 277 4.0 9.0 0.00 0.00 0.00 81 1026.1
20191207054520 18 269 5.0 8.0 0.00 0.00 0.00 79 1025.8
20191207053015 18 270 5.0 8.0 0.00 0.00 0.00 77 1025.9
20191207051632 19 273 4.0 9.0 0.00 0.00 0.00 75 1025.7
20191207050149 21 277 5.0 9.0 0.00 0.00 0.00 75 1025.5
20191207044716 21 299 6.0 9.0 0.00 0.00 0.00 75 1025.6
20191207043314 22 298 5.0 11.0 0.00 0.00 0.00 76 1025.6
20191207041717 22 303 6.0 11.0 0.00 0.00 0.00 77 1025.3
20191207040205 22 300 7.0 10.0 0.00 0.00 0.00 77 1025.3
20191207034856 22 277 4.0 11.0 0.00 0.00 0.00 76 1025.3
20191207033153 22 276 6.0 12.0 0.00 0.00 0.00 77 1025.0
20191207031652 22 302 6.0 14.0 0.00 0.00 0.00 80 1024.9
20191207030130 22 288 3.0 10.0 0.00 0.00 0.00 81 1024.8
20191207024738 22 299 5.0 10.0 0.00 0.00 0.00 81 1024.6
20191207023148 23 275 5.0 11.0 0.00 0.00 0.00 81 1024.3
20191207021611 23 282 7.0 13.0 0.00 0.00 0.00 82 1024.1
20191207020059 24 254 7.0 15.0 0.00 0.00 0.00 82 1024.0
20191207014608 24 294 6.0 13.0 0.00 0.00 0.00 84 1023.8
20191207013104 24 294 8.0 13.0 0.00 0.00 0.00 85 1023.9
20191207011612 24 287 8.0 14.0 0.00 0.00 0.00 86 1023.8
20191207010049 23 288 6.0 11.0 0.00 0.00 0.00 87 1023.7
20191207004522 22 271 6.0 10.0 0.00 0.00 0.00 86 1023.6
20191207003035 22 291 3.0 7.0 0.00 0.00 0.00 85 1023.4
20191207001538 23 292 0.0 0.0 0.00 0.00 0.00 85 1023.2
20191207000023 23 292 0.0 0.0 0.00 0.00 0.00 84 1023.1
20191206234524 23 292 0.0 0.0 0.00 0.00 0.00 83 1023.0
20191206233022 23 292 0.0 0.0 0.00 0.00 0.00 82 1022.9
20191206231537 23 292 0.0 0.0 0.00 0.00 0.00 82 1022.7
20191206230009 22 302 0.0 0.0 0.00 0.00 0.00 81 1022.5
20191206224504 23 302 0.0 0.0 0.00 0.00 0.00 80 1022.1
20191206223002 23 302 0.0 0.0 0.00 0.00 0.00 80 1022.0
20191206221635 23 302 0.0 0.0 0.00 0.00 0.00 79 1021.8
20191206220241 23 302 0.0 0.0 0.00 0.00 0.00 78 1021.7
20191206214650 24 302 0.0 0.0 0.00 0.00 0.00 78 1021.7
20191206213238 25 302 0.0 0.0 0.00 0.00 0.00 78 1021.4
20191206211801 25 303 1.0 9.0 0.00 0.00 0.00 78 1020.9
20191206210146 26 292 3.0 10.0 0.00 0.00 0.00 78 1021.0
20191206204610 26 317 5.0 9.0 0.00 0.00 0.00 78 1020.8
20191206203119 26 262 1.0 7.0 0.00 0.00 0.00 78 1020.6
20191206201604 26 308 7.0 12.0 0.00 0.00 0.00 77 1020.3
20191206200052 26 309 7.0 10.0 0.00 0.00 0.00 77 1019.9
20191206194628 26 299 6.0 13.0 0.00 0.00 0.00 78 1019.5
20191206193126 26 329 8.0 16.0 0.00 0.00 0.00 79 1019.3
20191206191606 27 258 7.0 16.0 0.00 0.00 0.00 81 1018.9
20191206190038 26 314 7.0 15.0 0.00 0.00 0.00 82 1018.7
20191206184544 26 300 6.0 17.0 0.00 0.00 0.00 83 1018.5
20191206183114 26 302 10.0 15.0 0.00 0.00 0.00 84 1018.2
20191206181537 27 339 9.0 14.0 0.00 0.00 0.00 85 1018.1
20191206180043 27 309 9.0 17.0 0.00 0.00 0.00 85 1018.1
20191206174600 27 301 10.0 14.0 0.00 0.00 0.00 86 1017.8
20191206173112 28 322 7.0 12.0 0.00 0.00 0.00 87 1017.6
20191206171549 28 330 5.0 11.0 0.00 0.00 0.00 88 1017.5
20191206170030 27 336 5.0 13.0 0.00 0.00 0.00 90 1017.4
20191206164529 28 5 6.0 13.0 0.00 0.00 0.00 91 1017.2
20191206163029 27 342 5.0 11.0 0.00 0.00 0.00 92 1017.1
20191206161524 27 11 3.0 11.0 0.00 0.00 0.00 92 1016.9
20191206160008 27 355 5.0 10.0 0.00 0.00 0.00 93 1016.9
20191206154530 27 344 6.0 12.0 0.00 0.00 0.00 93 1016.8
20191206153004 26 12 4.0 13.0 0.00 0.00 0.00 93 1016.7
20191206151745 26 17 4.0 14.0 0.00 0.00 0.00 93 1016.3
20191206150233 26 46 7.0 13.0 0.00 0.00 0.00 93 1016.1
20191206144642 26 36 6.0 14.0 0.00 0.00 0.00 93 1015.7
20191206141705 27 32 0.0 0.0 0.00 0.00 0.00 93 1015.2
20191206140232 27 34 0.0 0.0 0.00 0.00 0.00 93 1015.3
20191206134627 27 35 0.0 0.0 0.00 0.00 0.00 93 1014.9
20191206133123 27 36 0.0 0.0 0.00 0.00 0.00 93 1014.8
20191206131625 27 36 0.0 0.0 0.00 0.00 0.00 93 1014.6
20191206130116 27 36 0.0 8.0 0.00 0.00 0.00 93 1014.5
20191206124658 27 35 0.0 6.0 0.00 0.00 0.00 93 1014.8
20191206123133 27 74 0.0 0.0 0.00 0.00 0.00 92 1014.7
20191206121638 27 74 0.0 0.0 0.00 0.00 0.00 92 1014.4
20191206120236 27 222 0.0 0.0 0.00 0.00 0.00 92 1014.7
20191206114600 27 223 0.0 0.0 0.00 0.00 0.00 92 1014.8
20191206113146 27 223 0.0 0.0 0.00 0.00 0.00 92 1014.9